createdAt,value
2019-05-17T00:00:01.400Z,12
2019-05-17T00:01:02.826Z,11.8
2019-05-17T00:02:08.640Z,11.8
2019-05-17T00:03:09.960Z,11.8
2019-05-17T00:04:11.249Z,11.9
2019-05-17T00:05:12.792Z,12
2019-05-17T00:06:14.060Z,12.1
2019-05-17T00:07:17.648Z,12.1
2019-05-17T00:08:30.950Z,12.3
2019-05-17T00:09:38.849Z,12.5
2019-05-17T00:10:41.065Z,12.3
2019-05-17T00:11:43.652Z,11.8
2019-05-17T00:12:47.039Z,12.2
2019-05-17T00:13:48.974Z,12.3
2019-05-17T00:14:50.872Z,12.3
2019-05-17T00:15:52.299Z,12.1
2019-05-17T00:16:53.799Z,12
2019-05-17T00:17:57.050Z,12.1
2019-05-17T00:18:58.466Z,12.3
2019-05-17T00:19:59.771Z,12.4
2019-05-17T00:21:01.090Z,12.4
2019-05-17T00:22:02.362Z,12.1
2019-05-17T00:23:03.732Z,12.1
2019-05-17T00:24:08.096Z,12.3
2019-05-17T00:25:09.660Z,12.1
2019-05-17T00:26:10.955Z,12
2019-05-17T00:27:12.240Z,12.4
2019-05-17T00:28:13.552Z,12.3
2019-05-17T00:29:17.322Z,12.3
2019-05-17T00:30:19.049Z,12.3
2019-05-17T00:31:20.332Z,11.9
2019-05-17T00:32:23.434Z,11.7
2019-05-17T00:33:27.065Z,11.9
2019-05-17T00:34:28.765Z,12.1
2019-05-17T00:35:30.053Z,12.2
2019-05-17T00:36:31.406Z,12
2019-05-17T00:37:32.917Z,11.7
2019-05-17T00:38:45.478Z,11.9
2019-05-17T00:39:52.226Z,12.2
2019-05-17T00:40:53.498Z,12.1
2019-05-17T00:41:57.349Z,12
2019-05-17T00:42:58.750Z,12
2019-05-17T00:44:00.093Z,11.8
2019-05-17T00:45:01.360Z,11.9
2019-05-17T00:46:02.643Z,11.9
2019-05-17T00:47:06.340Z,12
2019-05-17T00:48:07.879Z,12
2019-05-17T00:49:09.225Z,12
2019-05-17T00:50:10.516Z,11.9
2019-05-17T00:51:11.800Z,11.7
2019-05-17T00:52:13.185Z,11.9
2019-05-17T00:53:16.342Z,12
2019-05-17T00:54:17.881Z,12
2019-05-17T00:55:19.193Z,11.9
2019-05-17T00:56:20.465Z,11.8
2019-05-17T00:57:21.723Z,11.7
2019-05-17T00:58:23.027Z,11.7
2019-05-17T00:59:26.242Z,11.7
2019-05-17T01:00:27.913Z,11.9
2019-05-17T01:01:29.402Z,12
2019-05-17T01:02:30.679Z,11.9
2019-05-17T01:03:31.963Z,12
2019-05-17T01:04:33.551Z,11.6
2019-05-17T01:05:36.843Z,11.6
2019-05-17T01:06:38.423Z,11.9
2019-05-17T01:07:39.698Z,11.9
2019-05-17T01:08:40.972Z,12
2019-05-17T01:09:42.287Z,11.9
2019-05-17T01:10:43.559Z,11.9
2019-05-17T01:11:47.162Z,11.8
2019-05-17T01:12:48.701Z,11.8
2019-05-17T01:13:50.291Z,11.7
2019-05-17T01:14:51.610Z,11.9
2019-05-17T01:15:56.545Z,11.9
2019-05-17T01:16:58.139Z,12
2019-05-17T01:18:02.373Z,12.2
2019-05-17T01:19:04.195Z,11.6
2019-05-17T01:20:07.525Z,12
2019-05-17T01:21:09.074Z,11.9
2019-05-17T01:22:10.370Z,12.1
2019-05-17T01:23:11.681Z,11.9
2019-05-17T01:24:12.941Z,11.7
2019-05-17T01:25:17.402Z,11.7
2019-05-17T01:26:21.407Z,11.9
2019-05-17T01:27:27.359Z,11.6
2019-05-17T01:28:28.638Z,11.8
2019-05-17T01:29:29.912Z,11.9
2019-05-17T01:30:31.429Z,11.5
2019-05-17T01:31:32.711Z,11.8
2019-05-17T01:32:33.985Z,11.8
2019-05-17T01:33:38.042Z,12
2019-05-17T01:34:39.353Z,11.9
2019-05-17T01:35:40.917Z,11.2
2019-05-17T01:36:42.199Z,11.7
2019-05-17T01:37:43.467Z,11.8
2019-05-17T01:38:46.867Z,11.9
2019-05-17T01:39:48.385Z,12
2019-05-17T01:40:49.961Z,12.2
2019-05-17T01:41:51.242Z,11.9
2019-05-17T01:42:52.541Z,12
2019-05-17T01:43:53.831Z,12
2019-05-17T01:44:57.693Z,11.9
2019-05-17T01:45:59.039Z,11.8
2019-05-17T01:47:00.333Z,11.8
2019-05-17T01:48:01.625Z,11.9
2019-05-17T01:49:03.090Z,12
2019-05-17T01:50:06.694Z,11.6
2019-05-17T01:51:08.250Z,11.8
2019-05-17T01:52:09.554Z,11.8
2019-05-17T01:53:10.847Z,11.8
2019-05-17T01:54:12.130Z,11.8
2019-05-17T01:55:13.411Z,11.7
2019-05-17T01:56:16.746Z,11.5
2019-05-17T01:57:18.311Z,11.6
2019-05-17T01:58:19.601Z,11.8
2019-05-17T01:59:20.979Z,11.3
2019-05-17T02:00:22.274Z,11.5
2019-05-17T02:01:27.528Z,11.6
2019-05-17T02:02:29.190Z,11.7
2019-05-17T02:03:30.457Z,11.4
2019-05-17T02:04:31.744Z,11.5
2019-05-17T02:05:33.027Z,11.4
2019-05-17T02:06:36.563Z,11.5
2019-05-17T02:07:40.965Z,11.6
2019-05-17T02:08:42.557Z,11.6
2019-05-17T02:09:43.834Z,11.5
2019-05-17T02:10:48.357Z,11.3
2019-05-17T02:11:49.740Z,11.3
2019-05-17T02:12:51.005Z,11.6
2019-05-17T02:13:52.400Z,11.8
2019-05-17T02:14:53.679Z,11.7
2019-05-17T02:15:56.402Z,11.7
2019-05-17T02:16:57.853Z,11.4
2019-05-17T02:17:59.195Z,11.4
2019-05-17T02:19:00.619Z,11.6
2019-05-17T02:20:01.903Z,12
2019-05-17T02:21:03.167Z,11.7
2019-05-17T02:22:04.489Z,11.5
2019-05-17T02:23:08.178Z,11.5
2019-05-17T02:24:09.469Z,11.7
2019-05-17T02:25:10.769Z,11.4
2019-05-17T02:26:12.329Z,11.5
2019-05-17T02:27:13.624Z,11.5
2019-05-17T02:28:14.899Z,11.6
2019-05-17T02:29:16.352Z,11.8
2019-05-17T02:30:17.651Z,11.5
2019-05-17T02:31:18.943Z,11.4
2019-05-17T02:32:23.304Z,11.6
2019-05-17T02:33:25.111Z,11.3
2019-05-17T02:34:26.407Z,11.4
2019-05-17T02:35:27.708Z,11.6
2019-05-17T02:36:29.245Z,11.7
2019-05-17T02:37:34.008Z,11.4
2019-05-17T02:38:35.331Z,11.6
2019-05-17T02:39:52.225Z,11.4
2019-05-17T02:41:03.713Z,11.5
2019-05-17T02:42:05.160Z,11.3
2019-05-17T02:43:06.919Z,11.5
2019-05-17T02:44:08.189Z,11.5
2019-05-17T02:45:09.470Z,11.6
2019-05-17T02:46:13.965Z,11.8
2019-05-17T02:47:15.246Z,11.6
2019-05-17T02:48:16.695Z,11.7
2019-05-17T02:49:17.982Z,11.4
2019-05-17T02:50:19.291Z,11.3
2019-05-17T02:51:24.015Z,11.6
2019-05-17T02:52:25.391Z,11.4
2019-05-17T02:53:26.715Z,11.7
2019-05-17T02:54:27.992Z,11.7
2019-05-17T02:55:32.230Z,11.3
2019-05-17T02:56:33.874Z,11.4
2019-05-17T02:57:35.158Z,11.5
2019-05-17T02:58:36.486Z,11.5
2019-05-17T02:59:37.783Z,11.4
2019-05-17T03:00:39.047Z,11.5
2019-05-17T03:01:43.872Z,11.4
2019-05-17T03:02:45.434Z,11.6
2019-05-17T03:03:46.753Z,11.3
2019-05-17T03:04:48.021Z,11.3
2019-05-17T03:05:53.664Z,11.4
2019-05-17T03:06:55.185Z,11.1
2019-05-17T03:07:56.469Z,11.2
2019-05-17T03:08:57.788Z,11.4
2019-05-17T03:10:13.433Z,11.7
2019-05-17T03:11:29.072Z,11.6
2019-05-17T03:12:34.334Z,11.6
2019-05-17T03:13:37.639Z,11.6
2019-05-17T03:14:38.961Z,11.4
2019-05-17T03:15:43.229Z,11.3
2019-05-17T03:16:44.749Z,11.1
2019-05-17T03:17:46.023Z,11.3
2019-05-17T03:18:47.312Z,11.3
2019-05-17T03:19:48.586Z,11.4
2019-05-17T03:20:53.519Z,11.4
2019-05-17T03:21:54.843Z,11.6
2019-05-17T03:22:56.123Z,11.4
2019-05-17T03:23:58.391Z,11.3
2019-05-17T03:25:02.853Z,11.4
2019-05-17T03:26:04.593Z,11.3
2019-05-17T03:27:05.889Z,11.2
2019-05-17T03:28:07.225Z,11.2
2019-05-17T03:29:08.505Z,11.1
2019-05-17T03:30:16.729Z,11.2
2019-05-17T03:31:19.608Z,11.3
2019-05-17T03:32:27.300Z,11.3
2019-05-17T03:33:28.638Z,11.4
2019-05-17T03:34:37.266Z,11.3
2019-05-17T03:35:39.077Z,11.4
2019-05-17T03:36:47.055Z,11.6
2019-05-17T03:37:48.651Z,11.8
2019-05-17T03:38:53.832Z,11.6
2019-05-17T03:39:55.095Z,11.5
2019-05-17T03:41:08.988Z,11.5
2019-05-17T03:42:24.443Z,11.3
2019-05-17T03:43:25.782Z,11.4
2019-05-17T03:44:27.046Z,11.5
2019-05-17T03:45:28.345Z,11.4
2019-05-17T03:46:33.362Z,11.3
2019-05-17T03:47:34.899Z,11.4
2019-05-17T03:48:36.198Z,11.6
2019-05-17T03:49:39.408Z,11.7
2019-05-17T03:50:44.490Z,11.6
2019-05-17T03:51:46.110Z,11.5
2019-05-17T03:52:48.358Z,11.3
2019-05-17T03:53:53.067Z,11.4
2019-05-17T03:54:54.840Z,11.3
2019-05-17T03:55:58.137Z,11.4
2019-05-17T03:57:02.626Z,11.6
2019-05-17T03:58:04.167Z,11.5
2019-05-17T03:59:05.449Z,11.6
2019-05-17T04:00:06.753Z,11.5
2019-05-17T04:01:08.364Z,11.4
2019-05-17T04:02:12.276Z,11.1
2019-05-17T04:03:15.808Z,11.2
2019-05-17T04:04:17.075Z,11.2
2019-05-17T04:05:18.357Z,11.3
2019-05-17T04:06:23.738Z,11.2
2019-05-17T04:07:25.402Z,11.1
2019-05-17T04:08:29.598Z,11.2
2019-05-17T04:09:37.437Z,10.9
2019-05-17T04:10:42.330Z,11.1
2019-05-17T04:11:44.247Z,11.1
2019-05-17T04:12:45.610Z,11.4
2019-05-17T04:13:46.978Z,11.1
2019-05-17T04:14:48.276Z,11.1
2019-05-17T04:15:52.711Z,11.3
2019-05-17T04:16:54.335Z,10.9
2019-05-17T04:17:55.705Z,11.3
2019-05-17T04:18:57.846Z,11.2
2019-05-17T04:20:02.931Z,11.4
2019-05-17T04:21:04.764Z,11.7
2019-05-17T04:22:06.048Z,11.2
2019-05-17T04:23:07.398Z,11.4
2019-05-17T04:24:08.672Z,11.3
2019-05-17T04:25:13.778Z,11.2
2019-05-17T04:26:15.402Z,11.2
2019-05-17T04:27:16.733Z,11.4
2019-05-17T04:28:18.084Z,11.5
2019-05-17T04:29:22.388Z,11.3
2019-05-17T04:30:23.938Z,11.2
2019-05-17T04:31:25.218Z,11.2
2019-05-17T04:32:26.539Z,11.1
2019-05-17T04:33:27.937Z,11.2
2019-05-17T04:34:33.499Z,11.3
2019-05-17T04:35:35.124Z,11.3
2019-05-17T04:36:36.736Z,11.2
2019-05-17T04:37:38.657Z,11.2
2019-05-17T04:38:43.332Z,11.3
2019-05-17T04:39:44.864Z,11.6
2019-05-17T04:40:46.168Z,11.2
2019-05-17T04:41:50.879Z,11.5
2019-05-17T04:42:55.798Z,11.4
2019-05-17T04:43:57.190Z,11.5
2019-05-17T04:44:58.722Z,11.3
2019-05-17T04:46:04.196Z,11.6
2019-05-17T04:47:05.831Z,11.4
2019-05-17T04:48:07.326Z,11.3
2019-05-17T04:49:08.676Z,11.2
2019-05-17T04:50:12.914Z,11.5
2019-05-17T04:51:15.044Z,11.3
2019-05-17T04:52:16.612Z,11.6
2019-05-17T04:53:17.940Z,11.4
2019-05-17T04:54:22.490Z,11.5
2019-05-17T04:55:24.213Z,11.3
2019-05-17T04:56:25.616Z,11.5
2019-05-17T04:57:26.907Z,11.4
2019-05-17T04:58:28.231Z,11.4
2019-05-17T04:59:33.335Z,11.4
2019-05-17T05:00:36.676Z,11.4
2019-05-17T05:01:43.864Z,11.6
2019-05-17T05:02:45.499Z,11.6
2019-05-17T05:03:51.846Z,11.6
2019-05-17T05:04:54.014Z,11.6
2019-05-17T05:05:55.322Z,11.5
2019-05-17T05:06:56.613Z,11.2
2019-05-17T05:07:57.905Z,11.1
2019-05-17T05:09:02.304Z,11.4
2019-05-17T05:10:03.971Z,11.3
2019-05-17T05:11:05.286Z,11.4
2019-05-17T05:12:06.896Z,11.6
2019-05-17T05:13:08.209Z,11.6
2019-05-17T05:14:12.541Z,11.7
2019-05-17T05:15:14.100Z,11.5
2019-05-17T05:16:15.388Z,11.6
2019-05-17T05:17:16.994Z,11.4
2019-05-17T05:18:22.072Z,11.5
2019-05-17T05:19:23.584Z,11.5
2019-05-17T05:20:24.889Z,11.4
2019-05-17T05:21:26.234Z,11.3
2019-05-17T05:22:27.549Z,11.6
2019-05-17T05:23:31.835Z,11.3
2019-05-17T05:24:34.842Z,11.4
2019-05-17T05:25:36.170Z,11.7
2019-05-17T05:26:42.369Z,11.7
2019-05-17T05:27:43.769Z,11.6
2019-05-17T05:28:45.059Z,11.6
2019-05-17T05:29:46.675Z,11.6
2019-05-17T05:30:48.589Z,11.5
2019-05-17T05:31:51.747Z,11.7
2019-05-17T05:32:53.549Z,11.7
2019-05-17T05:33:54.827Z,11.9
2019-05-17T05:34:56.168Z,11.8
2019-05-17T05:35:57.495Z,12
2019-05-17T05:36:59.008Z,12
2019-05-17T05:38:02.839Z,11.7
2019-05-17T05:39:05.698Z,11.6
2019-05-17T05:40:07.448Z,11.8
2019-05-17T05:41:16.388Z,11.8
2019-05-17T05:42:19.507Z,11.7
2019-05-17T05:43:22.833Z,11.8
2019-05-17T05:44:24.211Z,12.3
2019-05-17T05:45:26.607Z,12.8
2019-05-17T05:46:31.762Z,13.2
2019-05-17T05:47:33.339Z,13.4
2019-05-17T05:48:35.418Z,13.5
2019-05-17T05:49:37.643Z,13.6
2019-05-17T05:50:39.339Z,13.8
2019-05-17T05:51:43.622Z,13.9
2019-05-17T05:52:44.954Z,14
2019-05-17T05:53:46.269Z,14
2019-05-17T05:54:47.635Z,14
2019-05-17T05:55:51.209Z,14
2019-05-17T05:56:53.096Z,14.1
2019-05-17T05:57:54.411Z,14.1
2019-05-17T05:58:55.720Z,14.1
2019-05-17T05:59:57.246Z,14.2
2019-05-17T06:00:58.639Z,14.3
2019-05-17T06:02:03.177Z,14.2
2019-05-17T06:03:06.098Z,14.3
2019-05-17T06:04:07.434Z,14.4
2019-05-17T06:05:08.944Z,14.4
2019-05-17T06:06:12.309Z,14.5
2019-05-17T06:07:13.770Z,14.5
2019-05-17T06:08:15.104Z,14.5
2019-05-17T06:09:16.773Z,14.5
2019-05-17T06:10:18.314Z,14.6
2019-05-17T06:11:21.537Z,14.6
2019-05-17T06:12:27.064Z,14.6
2019-05-17T06:13:29.096Z,14.7
2019-05-17T06:14:32.307Z,14.7
2019-05-17T06:15:33.720Z,14.7
2019-05-17T06:16:34.994Z,14.7
2019-05-17T06:17:36.360Z,14.8
2019-05-17T06:18:37.652Z,14.9
2019-05-17T06:19:38.945Z,14.9
2019-05-17T06:20:41.706Z,15
2019-05-17T06:21:43.315Z,15
2019-05-17T06:22:44.705Z,14.9
2019-05-17T06:23:46.054Z,14.9
2019-05-17T06:24:47.325Z,15.1
2019-05-17T06:25:48.683Z,15.1
2019-05-17T06:26:52.830Z,15.1
2019-05-17T06:27:54.163Z,15.1
2019-05-17T06:28:58.384Z,15.1
2019-05-17T06:30:01.447Z,15.2
2019-05-17T06:31:03.137Z,15.3
2019-05-17T06:32:04.464Z,15.2
2019-05-17T06:33:05.864Z,15.2
2019-05-17T06:34:07.165Z,15.3
2019-05-17T06:35:08.483Z,15.3
2019-05-17T06:36:09.806Z,15.3
2019-05-17T06:37:12.905Z,15.3
2019-05-17T06:38:17.334Z,15.4
2019-05-17T06:39:18.640Z,15.3
2019-05-17T06:40:23.009Z,15.5
2019-05-17T06:41:24.340Z,15.5
2019-05-17T06:42:37.198Z,15.4
2019-05-17T06:43:45.766Z,15.3
2019-05-17T06:44:53.048Z,15.3
2019-05-17T06:45:54.388Z,15.4
2019-05-17T06:46:58.607Z,15.4
2019-05-17T06:48:02.485Z,15.5
2019-05-17T06:49:04.043Z,15.5
2019-05-17T06:50:05.350Z,15.5
2019-05-17T06:51:06.654Z,15.6
2019-05-17T06:52:07.949Z,15.6
2019-05-17T06:53:11.548Z,15.6
2019-05-17T06:54:13.554Z,15.6
2019-05-17T06:55:14.862Z,15.7
2019-05-17T06:56:16.187Z,15.7
2019-05-17T06:57:17.643Z,15.7
2019-05-17T06:58:19.172Z,15.7
2019-05-17T06:59:24.419Z,15.8
2019-05-17T07:00:25.728Z,15.7
2019-05-17T07:01:30.641Z,15.6
2019-05-17T07:02:31.963Z,15.7
2019-05-17T07:03:36.602Z,15.8
2019-05-17T07:04:45.256Z,15.7
2019-05-17T07:05:50.184Z,15.7
2019-05-17T07:06:51.699Z,15.8
2019-05-17T07:07:54.938Z,15.8
2019-05-17T07:08:56.302Z,15.9
2019-05-17T07:10:00.244Z,15.9
2019-05-17T07:11:02.030Z,16
2019-05-17T07:12:03.389Z,15.9
2019-05-17T07:13:04.738Z,15.9
2019-05-17T07:14:06.072Z,15.9
2019-05-17T07:15:07.458Z,15.9
2019-05-17T07:16:11.392Z,16
2019-05-17T07:17:12.734Z,16
2019-05-17T07:18:15.790Z,16
2019-05-17T07:19:17.112Z,16.1
2019-05-17T07:20:21.038Z,16
2019-05-17T07:21:22.398Z,16
2019-05-17T07:22:26.056Z,16.1
2019-05-17T07:23:29.783Z,16.2
2019-05-17T07:24:33.121Z,16.2
2019-05-17T07:25:34.489Z,16.2
2019-05-17T07:26:35.802Z,16.2
2019-05-17T07:27:41.651Z,16.2
2019-05-17T07:28:46.620Z,16.2
2019-05-17T07:29:49.695Z,16.2
2019-05-17T07:30:53.619Z,16.3
2019-05-17T07:31:54.988Z,16.3
2019-05-17T07:32:56.320Z,16.2
2019-05-17T07:33:59.691Z,16.3
2019-05-17T07:35:01.263Z,16.3
2019-05-17T07:36:02.694Z,16.3
2019-05-17T07:37:06.504Z,16.4
2019-05-17T07:38:13.240Z,16.4
2019-05-17T07:39:15.359Z,16.4
2019-05-17T07:40:16.676Z,16.5
2019-05-17T07:41:20.518Z,16.5
2019-05-17T07:42:22.001Z,16.5
2019-05-17T07:43:23.338Z,16.6
2019-05-17T07:44:24.651Z,16.7
2019-05-17T07:45:26.002Z,16.7
2019-05-17T07:46:29.326Z,16.7
2019-05-17T07:47:30.785Z,16.7
2019-05-17T07:48:32.250Z,16.8
2019-05-17T07:49:33.586Z,16.7
2019-05-17T07:50:34.912Z,16.7
2019-05-17T07:51:36.299Z,16.9
2019-05-17T07:52:40.310Z,17
2019-05-17T07:53:41.712Z,16.9
2019-05-17T07:54:45.802Z,17
2019-05-17T07:55:50.515Z,17
2019-05-17T07:56:52.352Z,17
2019-05-17T07:57:53.738Z,17
2019-05-17T07:58:55.102Z,17
2019-05-17T07:59:56.495Z,17
2019-05-17T08:01:02.065Z,16.9
2019-05-17T08:02:03.786Z,17
2019-05-17T08:03:05.122Z,17.1
2019-05-17T08:04:09.956Z,17
2019-05-17T08:05:11.453Z,17.2
2019-05-17T08:06:13.788Z,17.2
2019-05-17T08:07:15.762Z,17.3
2019-05-17T08:08:17.092Z,17.4
2019-05-17T08:09:24.344Z,17.4
2019-05-17T08:10:25.678Z,17.5
2019-05-17T08:11:30.261Z,17.4
2019-05-17T08:12:34.477Z,17.4
2019-05-17T08:13:36.124Z,17.3
2019-05-17T08:14:39.871Z,17.4
2019-05-17T08:15:41.430Z,17.5
2019-05-17T08:16:42.744Z,17.5
2019-05-17T08:17:44.114Z,17.5
2019-05-17T08:18:45.636Z,17.5
2019-05-17T08:19:46.937Z,17.5
2019-05-17T08:20:50.576Z,17.5
2019-05-17T08:21:52.674Z,17.6
2019-05-17T08:22:54.246Z,17.5
2019-05-17T08:23:56.828Z,17.6
2019-05-17T08:25:00.972Z,17.6
2019-05-17T08:26:02.271Z,17.6
2019-05-17T08:27:03.601Z,17.7
2019-05-17T08:28:04.920Z,17.7
2019-05-17T08:29:06.231Z,17.8
2019-05-17T08:30:10.065Z,17.8
2019-05-17T08:31:14.096Z,17.8
2019-05-17T08:32:15.432Z,17.8
2019-05-17T08:33:16.799Z,17.9
2019-05-17T08:34:20.099Z,17.9
2019-05-17T08:35:21.414Z,17.8
2019-05-17T08:36:22.786Z,17.8
2019-05-17T08:37:24.092Z,17.8
2019-05-17T08:38:25.494Z,17.9
2019-05-17T08:39:30.202Z,17.9
2019-05-17T08:40:34.381Z,17.9
2019-05-17T08:41:40.942Z,17.9
2019-05-17T08:42:42.286Z,17.9
2019-05-17T08:43:46.775Z,17.9
2019-05-17T08:44:50.474Z,18
2019-05-17T08:45:53.858Z,18.1
2019-05-17T08:46:55.188Z,18.1
2019-05-17T08:47:57.059Z,18.1
2019-05-17T08:49:00.976Z,18.1
2019-05-17T08:50:04.478Z,18.1
2019-05-17T08:51:05.793Z,18.2
2019-05-17T08:52:09.391Z,18.2
2019-05-17T08:53:11.480Z,18.3
2019-05-17T08:54:15.319Z,18.2
2019-05-17T08:55:16.636Z,18.3
2019-05-17T08:56:20.361Z,18.3
2019-05-17T08:57:21.818Z,18.3
2019-05-17T08:58:25.441Z,18.3
2019-05-17T08:59:29.137Z,18.4
2019-05-17T09:00:31.529Z,18.4
2019-05-17T09:01:33.287Z,18.4
2019-05-17T09:02:35.352Z,18.3
2019-05-17T09:03:36.711Z,18.4
2019-05-17T09:04:42.056Z,18.4
2019-05-17T09:05:43.412Z,18.4
2019-05-17T09:06:44.807Z,18.4
2019-05-17T09:07:46.149Z,18.4
2019-05-17T09:08:51.651Z,18.4
2019-05-17T09:09:52.995Z,18.5
2019-05-17T09:10:54.324Z,18.5
2019-05-17T09:11:56.311Z,18.6
2019-05-17T09:13:00.669Z,18.6
2019-05-17T09:14:02.306Z,18.6
2019-05-17T09:15:05.979Z,18.7
2019-05-17T09:16:10.909Z,18.7
2019-05-17T09:17:13.211Z,18.7
2019-05-17T09:18:14.807Z,18.7
2019-05-17T09:19:22.887Z,18.8
2019-05-17T09:20:24.300Z,18.8
2019-05-17T09:21:31.043Z,18.7
2019-05-17T09:22:32.926Z,18.8
2019-05-17T09:23:34.263Z,18.8
2019-05-17T09:24:35.678Z,18.8
2019-05-17T09:25:39.861Z,18.8
2019-05-17T09:26:43.855Z,18.9
2019-05-17T09:27:47.134Z,18.9
2019-05-17T09:28:53.272Z,18.9
2019-05-17T09:29:55.412Z,18.9
2019-05-17T09:30:59.803Z,18.9
2019-05-17T09:32:01.672Z,19
2019-05-17T09:33:06.228Z,19
2019-05-17T09:34:09.533Z,19
2019-05-17T09:35:11.005Z,19
2019-05-17T09:36:13.533Z,19
2019-05-17T09:37:16.873Z,19
2019-05-17T09:38:23.345Z,19.1
2019-05-17T09:39:24.665Z,19.1
2019-05-17T09:40:26.791Z,19.1
2019-05-17T09:41:32.519Z,19.2
2019-05-17T09:42:33.818Z,19.2
2019-05-17T09:43:40.384Z,19.2
2019-05-17T09:44:44.325Z,19.2
2019-05-17T09:45:45.673Z,19.3
2019-05-17T09:46:47.059Z,19.3
2019-05-17T09:47:50.964Z,19.3
2019-05-17T09:48:52.309Z,19.4
2019-05-17T09:49:53.631Z,19.4
2019-05-17T09:50:54.986Z,19.4
2019-05-17T09:51:56.359Z,19.4
2019-05-17T09:53:01.525Z,19.4
2019-05-17T09:54:02.996Z,19.5
2019-05-17T09:55:04.311Z,19.5
2019-05-17T09:56:05.655Z,19.5
2019-05-17T09:57:09.739Z,19.4
2019-05-17T09:58:11.587Z,19.5
2019-05-17T09:59:13.109Z,19.5
2019-05-17T10:00:14.419Z,19.6
2019-05-17T10:01:15.985Z,19.6
2019-05-17T10:02:17.348Z,19.6
2019-05-17T10:03:23.685Z,19.6
2019-05-17T10:04:25.457Z,19.7
2019-05-17T10:05:27.399Z,19.7
2019-05-17T10:06:35.999Z,19.8
2019-05-17T10:07:39.957Z,19.8
2019-05-17T10:08:41.537Z,19.8
2019-05-17T10:09:42.857Z,19.8
2019-05-17T10:10:44.199Z,19.8
2019-05-17T10:11:45.541Z,19.9
2019-05-17T10:12:49.482Z,19.9
2019-05-17T10:13:51.137Z,19.9
2019-05-17T10:15:00.426Z,19.9
2019-05-17T10:16:02.332Z,19.9
2019-05-17T10:17:03.681Z,19.9
2019-05-17T10:18:10.959Z,19.9
2019-05-17T10:19:15.480Z,19.9
2019-05-17T10:20:16.813Z,19.9
2019-05-17T10:21:20.616Z,20
2019-05-17T10:22:22.183Z,20
2019-05-17T10:23:23.550Z,20
2019-05-17T10:24:35.865Z,20
2019-05-17T10:25:42.995Z,20
2019-05-17T10:26:44.322Z,20
2019-05-17T10:27:47.220Z,20.1
2019-05-17T10:28:51.571Z,20.1
2019-05-17T10:30:00.584Z,20.1
2019-05-17T10:31:02.878Z,20.2
2019-05-17T10:32:04.241Z,20.2
2019-05-17T10:33:14.783Z,20.2
2019-05-17T10:34:16.405Z,20.3
2019-05-17T10:35:20.619Z,20.3
2019-05-17T10:36:24.321Z,20.3
2019-05-17T10:37:30.239Z,20.3
2019-05-17T10:38:31.687Z,20.3
2019-05-17T10:39:33.053Z,20.4
2019-05-17T10:40:34.443Z,20.4
2019-05-17T10:41:35.737Z,20.4
2019-05-17T10:42:39.338Z,20.4
2019-05-17T10:43:40.996Z,20.5
2019-05-17T10:44:47.241Z,20.5
2019-05-17T10:45:52.732Z,20.5
2019-05-17T10:47:02.481Z,20.6
2019-05-17T10:48:07.049Z,20.6
2019-05-17T10:49:14.249Z,20.6
2019-05-17T10:50:15.582Z,20.5
2019-05-17T10:51:16.943Z,20.5
2019-05-17T10:52:22.144Z,20.5
2019-05-17T10:53:23.484Z,20.6
2019-05-17T10:54:25.650Z,20.6
2019-05-17T10:55:27.028Z,20.6
2019-05-17T10:56:31.139Z,20.6
2019-05-17T10:57:41.625Z,20.6
2019-05-17T10:58:42.987Z,20.6
2019-05-17T10:59:44.328Z,20.7
2019-05-17T11:00:51.689Z,20.7
2019-05-17T11:01:53.007Z,20.7
2019-05-17T11:02:54.365Z,20.7
2019-05-17T11:05:10.510Z,20.8
2019-05-17T11:06:12.331Z,20.7
2019-05-17T11:07:13.631Z,20.7
2019-05-17T11:08:15.042Z,20.7
2019-05-17T11:09:20.162Z,20.8
2019-05-17T11:10:24.475Z,20.8
2019-05-17T11:11:25.812Z,20.8
2019-05-17T11:12:29.340Z,20.8
2019-05-17T11:13:30.630Z,20.8
2019-05-17T11:14:33.330Z,20.8
2019-05-17T11:15:34.688Z,20.8
2019-05-17T11:16:36.250Z,20.9
2019-05-17T11:17:37.786Z,20.9
2019-05-17T11:18:39.290Z,20.9
2019-05-17T11:19:40.586Z,20.9
2019-05-17T11:20:43.248Z,20.9
2019-05-17T11:21:47.565Z,21
2019-05-17T11:22:51.828Z,21
2019-05-17T11:23:53.455Z,21
2019-05-17T11:24:57.838Z,21
2019-05-17T11:26:01.934Z,21
2019-05-17T11:27:03.327Z,21
2019-05-17T11:28:07.650Z,21
2019-05-17T11:29:09.295Z,21
2019-05-17T11:30:18.426Z,21.1
2019-05-17T11:31:21.772Z,21.1
2019-05-17T11:32:25.096Z,21.1
2019-05-17T11:33:26.381Z,21.1
2019-05-17T11:34:36.794Z,21.1
2019-05-17T11:35:39.618Z,21.1
2019-05-17T11:36:43.894Z,21.1
2019-05-17T11:37:57.323Z,21.1
2019-05-17T11:39:00.125Z,21.1
2019-05-17T11:40:04.021Z,21
2019-05-17T11:41:20.238Z,21.1
2019-05-17T11:42:25.939Z,21.1
2019-05-17T11:43:37.188Z,21.2
2019-05-17T11:44:38.585Z,21.2
2019-05-17T11:45:48.708Z,21.2
2019-05-17T11:46:50.067Z,21.2
2019-05-17T11:47:54.630Z,21.2
2019-05-17T11:48:58.312Z,21.2
2019-05-17T11:50:02.172Z,21.2
2019-05-17T11:51:04.593Z,21.2
2019-05-17T11:52:08.853Z,21.2
2019-05-17T11:53:11.246Z,21.2
2019-05-17T11:55:31.039Z,21.2
2019-05-17T11:56:33.599Z,21.3
2019-05-17T11:57:37.405Z,21.2
2019-05-17T11:58:38.947Z,21.3
2019-05-17T11:59:43.394Z,21.3
2019-05-17T12:00:44.760Z,21.3
2019-05-17T12:01:48.724Z,21.3
2019-05-17T12:02:50.300Z,21.4
2019-05-17T12:03:52.768Z,21.4
2019-05-17T12:04:54.124Z,21.4
2019-05-17T12:05:55.356Z,21.4
2019-05-17T12:06:56.796Z,21.4
2019-05-17T12:07:58.337Z,21.4
2019-05-17T12:08:59.841Z,21.4
2019-05-17T12:10:01.745Z,21.4
2019-05-17T12:11:03.066Z,21.4
2019-05-17T12:12:04.436Z,21.4
2019-05-17T12:13:05.836Z,21.5
2019-05-17T12:14:07.138Z,21.5
2019-05-17T12:15:08.568Z,21.5
2019-05-17T12:16:09.892Z,21.5
2019-05-17T12:17:11.222Z,21.5
2019-05-17T12:18:12.526Z,21.5
2019-05-17T12:19:13.811Z,21.5
2019-05-17T12:20:15.259Z,21.5
2019-05-17T12:21:16.622Z,21.5
2019-05-17T12:22:20.950Z,21.5
2019-05-17T12:23:22.273Z,21.5
2019-05-17T12:24:25.642Z,21.5
2019-05-17T12:25:26.986Z,21.5
2019-05-17T12:26:28.296Z,21.5
2019-05-17T12:27:29.589Z,21.5
2019-05-17T12:28:31.164Z,21.5
2019-05-17T12:29:34.692Z,21.5
2019-05-17T12:30:36.859Z,21.5
2019-05-17T12:31:38.131Z,21.6
2019-05-17T12:32:39.723Z,21.6
2019-05-17T12:33:41.027Z,21.6
2019-05-17T12:34:43.411Z,21.6
2019-05-17T12:35:46.912Z,21.6
2019-05-17T12:36:48.181Z,21.6
2019-05-17T12:37:49.531Z,21.6
2019-05-17T12:38:50.892Z,21.6
2019-05-17T12:39:54.494Z,21.6
2019-05-17T12:40:57.711Z,21.6
2019-05-17T12:41:59.160Z,21.5
2019-05-17T12:43:00.842Z,21.6
2019-05-17T12:44:02.134Z,21.6
2019-05-17T12:45:03.462Z,21.6
2019-05-17T12:46:05.073Z,21.6
2019-05-17T12:47:06.426Z,21.6
2019-05-17T12:48:09.962Z,21.6
2019-05-17T12:49:11.281Z,21.6
2019-05-17T12:50:12.564Z,21.6
2019-05-17T12:51:13.964Z,21.6
2019-05-17T12:52:15.229Z,21.6
2019-05-17T12:53:16.753Z,21.6
2019-05-17T12:54:18.258Z,21.6
2019-05-17T12:55:19.779Z,21.6
2019-05-17T12:56:22.610Z,21.6
2019-05-17T12:57:23.888Z,21.6
2019-05-17T12:58:27.380Z,21.6
2019-05-17T12:59:28.957Z,21.6
2019-05-17T13:00:30.236Z,21.6
2019-05-17T13:01:31.838Z,21.6
2019-05-17T13:02:35.614Z,21.6
2019-05-17T13:03:49.809Z,21.6
2019-05-17T13:04:53.729Z,21.6
2019-05-17T13:05:56.289Z,21.6
2019-05-17T13:06:57.813Z,21.6
2019-05-17T13:07:59.307Z,21.6
2019-05-17T13:09:01.070Z,21.6
2019-05-17T13:10:02.524Z,21.6
2019-05-17T13:11:03.799Z,21.6
2019-05-17T13:12:05.361Z,21.7
2019-05-17T13:13:09.480Z,21.7
2019-05-17T13:14:11.386Z,21.7
2019-05-17T13:15:15.300Z,21.7
2019-05-17T13:16:17.754Z,21.7
2019-05-17T13:17:20.272Z,21.7
2019-05-17T13:18:21.557Z,21.7
2019-05-17T13:19:25.204Z,21.7
2019-05-17T13:20:26.658Z,21.7
2019-05-17T13:21:30.601Z,21.7
2019-05-17T13:22:32.049Z,21.7
2019-05-17T13:23:33.615Z,21.7
2019-05-17T13:24:35.134Z,21.7
2019-05-17T13:25:36.690Z,21.7
2019-05-17T13:26:43.617Z,21.7
2019-05-17T13:27:48.062Z,21.6
2019-05-17T13:28:49.655Z,21.6
2019-05-17T13:29:50.938Z,21.6
2019-05-17T13:30:52.620Z,21.6
2019-05-17T13:31:53.900Z,21.6
2019-05-17T13:32:55.248Z,21.7
2019-05-17T13:33:56.549Z,21.7
2019-05-17T13:34:59.065Z,21.7
2019-05-17T13:36:05.570Z,21.7
2019-05-17T13:37:12.290Z,21.7
2019-05-17T13:38:14.928Z,21.7
2019-05-17T13:39:16.208Z,21.8
2019-05-17T13:40:18.759Z,21.7
2019-05-17T13:41:28.046Z,21.7
2019-05-17T13:42:29.319Z,21.7
2019-05-17T13:43:33.298Z,21.7
2019-05-17T13:44:34.553Z,21.7
2019-05-17T13:45:36.169Z,21.7
2019-05-17T13:46:37.778Z,21.7
2019-05-17T13:47:39.620Z,21.7
2019-05-17T13:48:41.269Z,21.7
2019-05-17T13:49:45.123Z,21.7
2019-05-17T13:50:51.089Z,21.7
2019-05-17T13:51:53.594Z,21.7
2019-05-17T13:52:55.332Z,21.7
2019-05-17T13:53:56.660Z,21.7
2019-05-17T13:54:59.590Z,21.7
2019-05-17T13:56:06.919Z,21.7
2019-05-17T13:57:11.209Z,21.7
2019-05-17T13:58:12.729Z,21.7
2019-05-17T13:59:14.288Z,21.7
2019-05-17T14:00:16.792Z,21.6
2019-05-17T14:01:18.055Z,21.7
2019-05-17T14:02:19.354Z,21.7